Time;durP1;ratioP1;P1;durP2;ratioP2;P2;SDS_P1;SDS_P2;PMS_P1;PMS_P2;Temp;Humidity;BMP_temperature;BMP_pressure;BME280_temperature;BME280_humidity;BME280_pressure;Samples;Min_cycle;Max_cycle;Signal;HPM_P1;HPM_P2
2021/06/28 00:02:24;;;;;;;7.65;5.20;;;;;;;23.05;61.76;98487.72;5012144;28;20049;-64
2021/06/28 00:04:49;;;;;;;7.35;5.20;;;;;;;23.09;61.24;98486.25;5025414;28;20619;-63
2021/06/28 00:07:15;;;;;;;8.65;5.57;;;;;;;22.89;61.20;98454.72;5007961;28;20079;-64
2021/06/28 00:09:40;;;;;;;9.15;5.45;;;;;;;23.07;61.57;98490.16;4997511;28;20036;-63
2021/06/28 00:12:06;;;;;;;9.15;6.53;;;;;;;22.90;61.83;98452.88;5036900;28;20033;-63
2021/06/28 00:14:31;;;;;;;8.52;6.38;;;;;;;23.02;61.58;98482.88;5017418;28;20480;-63
2021/06/28 00:16:57;;;;;;;10.27;7.47;;;;;;;23.05;61.82;98487.72;5028731;28;20112;-63
2021/06/28 00:19:22;;;;;;;7.07;6.30;;;;;;;23.01;62.03;98484.69;5027836;28;20053;-63
2021/06/28 00:21:48;;;;;;;7.93;5.70;;;;;;;23.03;61.74;98481.81;5024862;28;20125;-63
2021/06/28 00:24:13;;;;;;;6.60;5.70;;;;;;;22.97;62.17;98483.56;5015653;28;20673;-64
2021/06/28 00:26:39;;;;;;;7.45;6.10;;;;;;;22.98;62.02;98479.03;5020314;28;20896;-64
2021/06/28 00:29:05;;;;;;;8.27;5.85;;;;;;;22.79;62.23;98462.44;5020598;28;20036;-63
2021/06/28 00:31:30;;;;;;;7.03;6.28;;;;;;;22.96;62.25;98474.00;5018372;28;20037;-64
2021/06/28 00:33:56;;;;;;;7.55;6.22;;;;;;;22.98;62.25;98479.03;5017610;28;20454;-65
2021/06/28 00:36:21;;;;;;;7.95;6.45;;;;;;;22.83;62.79;98471.53;5019548;28;20460;-62
2021/06/28 00:38:47;;;;;;;7.43;6.20;;;;;;;22.86;62.87;98471.09;5020207;28;20041;-63
2021/06/28 00:41:12;;;;;;;8.32;6.30;;;;;;;22.89;62.80;98475.13;5021527;28;20499;-64
2021/06/28 00:43:38;;;;;;;7.35;5.43;;;;;;;22.72;62.31;98454.56;5016662;28;20417;-63
2021/06/28 00:46:03;;;;;;;8.27;7.45;;;;;;;22.87;62.60;98472.69;5020992;28;20105;-63
2021/06/28 00:48:28;;;;;;;7.60;5.75;;;;;;;22.84;62.77;98470.50;5018583;28;20103;-66
2021/06/28 00:50:54;;;;;;;7.40;6.45;;;;;;;22.91;62.54;98476.53;5016126;28;20551;-62
2021/06/28 00:53:23;;;;;;;7.57;6.43;;;;;;;22.84;62.83;98473.16;5016918;28;20037;-63
2021/06/28 00:55:49;;;;;;;8.38;5.60;;;;;;;22.79;63.37;98468.53;5030345;28;20141;-64
2021/06/28 00:58:15;;;;;;;8.73;6.40;;;;;;;22.80;63.29;98466.72;5021184;28;20029;-62
2021/06/28 01:00:42;;;;;;;7.25;5.55;;;;;;;22.82;63.48;98483.19;5019082;28;20152;-63
2021/06/28 01:03:09;;;;;;;7.43;6.40;;;;;;;22.72;63.64;98475.78;5020939;28;20040;-64
2021/06/28 01:05:37;;;;;;;9.45;5.97;;;;;;;22.75;63.78;98483.28;5013452;28;20153;-63
2021/06/28 01:08:04;;;;;;;8.80;6.43;;;;;;;22.76;63.68;98479.59;5018275;28;20029;-64
2021/06/28 01:10:30;;;;;;;8.10;6.88;;;;;;;22.71;63.58;98492.72;5035524;28;20041;-65
2021/06/28 01:12:55;;;;;;;9.70;6.53;;;;;;;22.48;63.95;98452.91;5018561;28;20034;-64
2021/06/28 01:15:21;;;;;;;8.10;5.82;;;;;;;22.74;63.54;98481.66;5035910;28;20087;-63
2021/06/28 01:17:47;;;;;;;7.22;6.00;;;;;;;22.79;63.07;98484.44;5016138;28;20060;-65
2021/06/28 01:20:24;;;;;;;8.82;6.30;;;;;;;22.71;62.95;98476.81;5021340;28;20037;-63
2021/06/28 01:22:51;;;;;;;8.65;7.20;;;;;;;22.76;62.74;98482.25;5030553;28;20056;-63
2021/06/28 01:25:19;;;;;;;7.60;6.80;;;;;;;22.77;62.40;98483.06;5018551;28;20464;-63
2021/06/28 01:27:46;;;;;;;7.47;5.50;;;;;;;22.61;62.40;98458.00;5028920;28;20033;-63
2021/06/28 01:30:17;;;;;;;8.63;6.60;;;;;;;22.88;61.63;98478.81;5011256;28;20487;-63
2021/06/28 01:32:44;;;;;;;8.35;5.20;;;;;;;22.81;61.42;98470.97;5007788;28;20041;-66
2021/06/28 01:35:12;;;;;;;8.52;6.40;;;;;;;22.89;60.50;98481.25;5014611;28;20662;-63
2021/06/28 01:37:37;;;;;;;8.10;6.22;;;;;;;22.88;61.10;98479.63;5017841;28;20025;-62
2021/06/28 01:40:06;;;;;;;10.00;7.03;;;;;;;22.79;61.82;98478.34;5000115;28;20143;-64
2021/06/28 01:42:32;;;;;;;7.72;6.85;;;;;;;22.78;62.19;98482.00;5034728;28;20041;-63
2021/06/28 01:44:58;;;;;;;7.13;6.38;;;;;;;22.78;61.57;98479.34;5015533;28;20029;-63
2021/06/28 01:47:24;;;;;;;8.27;6.93;;;;;;;22.73;61.64;98468.66;5017398;28;20026;-63
2021/06/28 01:49:50;;;;;;;8.25;6.13;;;;;;;22.76;61.81;98473.47;5018705;28;20472;-63
2021/06/28 01:52:15;;;;;;;12.18;6.82;;;;;;;22.77;61.37;98473.25;5018589;28;20391;-63
2021/06/28 01:54:41;;;;;;;7.72;6.32;;;;;;;22.75;61.46;98461.28;5019551;28;20467;-62
2021/06/28 01:57:07;;;;;;;9.02;5.72;;;;;;;22.68;61.62;98464.00;4999049;28;20036;-63
2021/06/28 01:59:35;;;;;;;7.43;5.47;;;;;;;22.54;61.29;98422.84;5018857;28;20037;-64
2021/06/28 02:02:03;;;;;;;7.53;6.32;;;;;;;22.83;60.80;98468.88;5000655;28;20041;-62
2021/06/28 02:04:28;;;;;;;9.32;5.85;;;;;;;22.79;61.32;98467.72;5015879;28;20049;-64
2021/06/28 02:06:55;;;;;;;6.72;5.18;;;;;;;22.78;61.22;98460.81;5022405;28;20034;-63
2021/06/28 02:09:21;;;;;;;7.70;5.97;;;;;;;22.49;61.14;98415.59;5031203;28;20025;-66
2021/06/28 02:11:48;;;;;;;8.05;5.88;;;;;;;22.78;60.88;98466.09;5019120;28;20037;-62
2021/06/28 02:14:13;;;;;;;7.95;6.03;;;;;;;22.75;60.98;98463.94;5020585;28;20038;-62
2021/06/28 02:16:43;;;;;;;7.15;6.05;;;;;;;22.77;61.32;98465.31;5018323;28;20087;-63
2021/06/28 02:19:08;;;;;;;;;;;;;;;22.80;60.90;98469.34;5019067;28;20014;-63
2021/06/28 02:21:33;;;;;;;8.60;5.57;;;;;;;22.53;60.92;98423.91;5019451;28;19944;-64
2021/06/28 02:23:59;;;;;;;7.35;6.60;;;;;;;22.78;61.38;98474.06;5022735;28;20491;-62
2021/06/28 02:26:24;;;;;;;9.55;5.80;;;;;;;22.78;61.19;98466.94;5016015;28;20723;-63
2021/06/28 02:28:50;;;;;;;10.32;5.95;;;;;;;22.69;61.63;98470.13;5015703;28;20132;-62
2021/06/28 02:31:20;;;;;;;7.95;6.53;;;;;;;22.71;61.35;98466.22;5014027;28;20026;-62
2021/06/28 02:33:46;;;;;;;9.57;6.65;;;;;;;22.68;61.31;98461.38;5012398;28;20064;-63
2021/06/28 02:36:12;;;;;;;9.68;6.32;;;;;;;22.68;61.70;98465.88;5022849;28;20101;-63
2021/06/28 02:38:39;;;;;;;7.70;5.60;;;;;;;22.71;61.43;98470.69;5022213;28;20790;-62
2021/06/28 02:41:04;;;;;;;8.63;6.50;;;;;;;22.69;61.53;98464.81;5035673;28;20025;-65
2021/06/28 02:43:30;;;;;;;7.75;5.90;;;;;;;22.71;61.24;98466.22;5021686;28;20037;-62
2021/06/28 02:45:56;;;;;;;6.40;5.15;;;;;;;22.48;61.16;98427.22;5017318;28;20057;-64
2021/06/28 02:48:21;;;;;;;8.48;6.43;;;;;;;22.55;60.95;98424.47;5022232;28;20036;-63
2021/06/28 02:50:48;;;;;;;6.88;5.25;;;;;;;22.77;61.11;98462.66;5020916;28;20113;-63
2021/06/28 02:53:17;;;;;;;9.20;6.50;;;;;;;22.69;61.11;98470.94;5019049;28;20602;-64
2021/06/28 02:55:44;;;;;;;7.88;5.93;;;;;;;22.45;61.13;98417.88;5006297;28;20026;-63
2021/06/28 02:58:09;;;;;;;7.68;5.63;;;;;;;22.67;60.76;98449.16;5015558;28;20060;-63
2021/06/28 03:00:35;;;;;;;7.95;6.57;;;;;;;22.69;60.68;98465.66;5018090;28;20770;-62
2021/06/28 03:03:00;;;;;;;8.55;6.63;;;;;;;22.68;61.08;98460.56;5016447;28;20033;-63
2021/06/28 03:05:26;;;;;;;8.02;6.35;;;;;;;22.75;60.47;98458.63;5023483;28;20508;-63
2021/06/28 03:07:53;;;;;;;7.05;5.25;;;;;;;22.61;60.99;98453.50;5020148;28;20030;-63
2021/06/28 03:10:18;;;;;;;10.05;6.65;;;;;;;22.68;60.33;98466.66;5022194;28;20064;-64
2021/06/28 03:12:43;;;;;;;6.70;6.00;;;;;;;22.43;60.80;98430.56;5003567;28;20037;-63
2021/06/28 03:15:12;;;;;;;6.18;5.50;;;;;;;22.68;60.46;98471.16;5005475;28;20025;-63
2021/06/28 03:17:38;;;;;;;12.35;6.57;;;;;;;22.55;60.56;98445.66;5016181;28;20034;-62
2021/06/28 03:20:06;;;;;;;8.27;5.43;;;;;;;22.69;60.23;98473.59;5021803;28;20459;-63
2021/06/28 03:22:31;;;;;;;7.85;4.90;;;;;;;22.76;60.18;98476.13;5019662;28;20029;-63
2021/06/28 03:24:56;;;;;;;7.53;6.25;;;;;;;22.73;60.70;98474.75;5019493;28;20519;-62
2021/06/28 03:27:22;;;;;;;7.40;5.70;;;;;;;22.74;60.78;98479.00;5022519;28;20033;-63
2021/06/28 03:29:48;;;;;;;8.55;5.88;;;;;;;22.77;60.95;98477.75;5010992;28;20195;-63
2021/06/28 03:32:13;;;;;;;9.07;7.15;;;;;;;22.60;60.89;98453.75;5015889;28;20056;-64
2021/06/28 03:34:38;;;;;;;8.00;6.18;;;;;;;22.83;60.92;98485.63;5036235;28;20041;-64
2021/06/28 03:37:05;;;;;;;7.70;5.30;;;;;;;22.79;61.19;98470.38;5036473;28;20481;-63
2021/06/28 03:39:31;;;;;;;10.80;5.47;;;;;;;22.74;61.67;98468.41;5017374;28;20075;-62
2021/06/28 03:41:57;;;;;;;6.28;5.57;;;;;;;22.68;61.92;98471.97;5018802;28;20029;-63
2021/06/28 03:44:22;;;;;;;7.00;5.30;;;;;;;22.63;61.80;98463.88;5022372;28;20026;-63
2021/06/28 03:46:48;;;;;;;7.97;5.78;;;;;;;22.74;61.49;98481.66;5036118;28;20037;-63
2021/06/28 03:49:13;;;;;;;7.60;6.63;;;;;;;22.81;61.46;98486.84;5003008;28;20091;-64
2021/06/28 03:51:39;;;;;;;8.15;5.53;;;;;;;22.81;61.52;98487.66;5008209;28;20042;-64
2021/06/28 03:54:05;;;;;;;7.85;5.60;;;;;;;22.75;62.00;98491.22;5019253;28;20025;-64
2021/06/28 03:56:31;;;;;;;8.27;5.90;;;;;;;22.70;62.53;98492.94;5030025;28;20535;-64
2021/06/28 03:58:56;;;;;;;7.40;5.47;;;;;;;22.77;62.85;98491.00;5013686;28;20029;-62
2021/06/28 04:01:22;;;;;;;7.68;6.18;;;;;;;22.69;62.41;98465.66;5003255;28;20030;-63
2021/06/28 04:03:49;;;;;;;7.18;5.10;;;;;;;22.79;62.93;98480.97;5018986;28;20033;-63
2021/06/28 04:06:15;;;;;;;7.65;6.47;;;;;;;22.68;63.19;98487.88;5000687;28;20033;-63
2021/06/28 04:08:40;;;;;;;8.27;6.47;;;;;;;22.63;63.64;98491.22;5015998;28;20055;-63
2021/06/28 04:11:07;;;;;;;8.10;6.45;;;;;;;22.65;63.56;98490.97;5018960;28;20022;-63
2021/06/28 04:13:33;;;;;;;8.13;5.90;;;;;;;22.58;63.51;98463.75;5020771;28;20156;-64
2021/06/28 04:15:58;;;;;;;9.02;6.13;;;;;;;22.65;62.58;98490.97;5032152;28;20135;-63
2021/06/28 04:18:23;;;;;;;7.43;5.85;;;;;;;22.52;62.62;98459.34;5015113;28;20045;-63
2021/06/28 04:20:49;;;;;;;7.53;6.10;;;;;;;22.78;62.44;98484.66;5020358;28;20069;-63
2021/06/28 04:23:14;;;;;;;8.57;5.97;;;;;;;22.68;62.81;98487.88;5013853;28;20040;-64
2021/06/28 04:25:40;;;;;;;8.30;6.25;;;;;;;22.68;62.89;98492.38;5016808;28;20033;-63
2021/06/28 04:28:05;;;;;;;7.07;5.22;;;;;;;22.60;63.65;98493.50;5029178;28;20030;-63
2021/06/28 04:30:31;;;;;;;7.28;5.63;;;;;;;22.61;63.69;98495.09;5015188;28;20029;-63
2021/06/28 04:32:56;;;;;;;8.07;5.78;;;;;;;22.65;63.59;98483.00;5018901;28;20029;-63
2021/06/28 04:35:26;;;;;;;7.45;5.15;;;;;;;22.64;64.07;98489.34;5017899;28;20034;-62
2021/06/28 04:37:52;;;;;;;;;;;;;;;22.56;64.32;98500.25;5016641;28;20025;-63
2021/06/28 04:40:19;;;;;;;8.07;5.53;;;;;;;22.55;63.44;98496.00;5017028;28;19943;-64
2021/06/28 04:42:45;;;;;;;8.43;5.60;;;;;;;22.81;63.27;98503.56;5020389;28;20029;-63
2021/06/28 04:45:12;;;;;;;8.75;5.13;;;;;;;22.82;63.09;98504.41;5002094;28;20026;-63
2021/06/28 04:47:38;;;;;;;7.32;5.53;;;;;;;22.59;63.56;98503.28;5013544;28;20850;-62
2021/06/28 04:50:04;;;;;;;7.65;5.30;;;;;;;22.74;63.51;98497.53;5028673;28;20034;-63
2021/06/28 04:52:31;;;;;;;6.95;4.80;;;;;;;22.65;63.53;98505.03;5033324;28;20033;-63
2021/06/28 04:54:57;;;;;;;9.85;5.88;;;;;;;22.46;64.25;98487.56;5019100;28;20087;-63
2021/06/28 04:57:22;;;;;;;8.00;5.40;;;;;;;22.51;64.86;98500.94;5016355;28;20025;-63
2021/06/28 04:59:47;;;;;;;7.88;6.60;;;;;;;22.56;64.77;98502.91;5014305;28;20079;-63
2021/06/28 05:02:15;;;;;;;8.75;5.72;;;;;;;22.43;64.72;98490.66;5033281;28;20033;-63
2021/06/28 05:04:40;;;;;;;7.88;6.20;;;;;;;22.64;62.70;98499.97;5033735;28;20033;-64
2021/06/28 05:07:05;;;;;;;6.60;5.45;;;;;;;22.71;61.21;98513.09;5014026;28;20025;-63
2021/06/28 05:09:31;;;;;;;8.32;6.32;;;;;;;22.70;61.04;98511.50;5006589;28;20029;-62
2021/06/28 05:11:57;;;;;;;7.53;6.43;;;;;;;22.79;61.03;98518.88;5028417;28;20380;-62
2021/06/28 05:14:22;;;;;;;7.60;6.85;;;;;;;22.87;61.00;98515.09;5015967;28;20030;-63
2021/06/28 05:16:48;;;;;;;8.43;6.22;;;;;;;22.88;60.49;98513.28;5019386;28;20515;-63
2021/06/28 05:19:13;;;;;;;8.00;6.80;;;;;;;22.93;60.66;98526.66;5018659;28;20136;-62
2021/06/28 05:21:38;;;;;;;8.57;4.85;;;;;;;22.88;61.07;98516.72;5019516;28;20811;-63
2021/06/28 05:24:04;;;;;;;10.07;6.68;;;;;;;22.92;61.25;98515.22;5026695;28;20069;-63
2021/06/28 05:26:30;;;;;;;7.38;5.85;;;;;;;22.94;61.30;98522.97;5021506;28;20552;-63
2021/06/28 05:28:55;;;;;;;7.25;5.68;;;;;;;23.01;61.20;98519.16;5014824;28;20576;-62
2021/06/28 05:31:21;;;;;;;6.40;5.45;;;;;;;22.79;60.68;98484.44;5020989;28;20065;-63
2021/06/28 05:33:46;;;;;;;9.32;6.63;;;;;;;22.93;60.25;98508.09;5024269;28;20488;-61
2021/06/28 05:36:12;;;;;;;9.18;5.50;;;;;;;23.01;58.93;98518.38;5035587;28;20111;-63
2021/06/28 05:38:37;;;;;;;7.20;6.20;;;;;;;23.13;58.46;98516.59;5022081;28;20032;-62
2021/06/28 05:41:03;;;;;;;7.90;6.45;;;;;;;23.19;58.72;98526.25;5020784;28;20030;-63
2021/06/28 05:43:28;;;;;;;6.63;5.03;;;;;;;23.18;58.93;98529.16;5035098;28;20404;-63
2021/06/28 05:45:54;;;;;;;6.97;6.28;;;;;;;23.11;58.32;98517.84;5014975;28;20033;-64
2021/06/28 05:48:19;;;;;;;8.93;5.78;;;;;;;23.15;59.09;98519.00;5021200;28;20028;-63
2021/06/28 05:50:45;;;;;;;6.57;5.85;;;;;;;23.07;59.60;98533.38;5013756;28;20562;-64
2021/06/28 05:53:10;;;;;;;8.18;6.55;;;;;;;23.07;58.68;98527.28;5015476;28;20204;-65
2021/06/28 05:55:36;;;;;;;9.20;6.13;;;;;;;22.84;58.22;98473.97;5021799;28;20096;-63
2021/06/28 05:58:01;;;;;;;6.00;5.05;;;;;;;23.13;57.81;98519.22;5012977;28;20025;-62
2021/06/28 06:00:27;;;;;;;8.40;5.78;;;;;;;23.30;58.04;98526.53;5016852;28;20040;-62
2021/06/28 06:02:53;;;;;;;6.22;5.20;;;;;;;23.23;58.01;98510.69;5037593;28;20537;-63
2021/06/28 06:05:18;;;;;;;7.13;5.85;;;;;;;23.29;58.49;98523.06;5032136;28;20025;-63
2021/06/28 06:07:43;;;;;;;7.05;6.38;;;;;;;23.30;58.42;98519.38;5029571;28;20584;-64
2021/06/28 06:10:12;;;;;;;8.77;5.13;;;;;;;23.29;58.31;98520.41;5036251;28;20038;-63
2021/06/28 06:12:39;;;;;;;6.68;5.05;;;;;;;23.25;58.85;98518.44;5037012;28;20026;-62
2021/06/28 06:15:06;;;;;;;8.63;6.18;;;;;;;23.25;57.76;98508.63;5013481;28;20037;-62
2021/06/28 06:17:32;;;;;;;9.48;5.88;;;;;;;23.29;56.85;98512.47;5022121;28;20045;-62
2021/06/28 06:19:59;;;;;;;6.78;6.03;;;;;;;23.29;57.44;98520.41;5016532;28;20156;-63
2021/06/28 06:22:24;;;;;;;6.95;6.18;;;;;;;23.22;57.30;98509.91;5017777;28;20029;-63
2021/06/28 06:24:49;;;;;;;8.60;6.07;;;;;;;23.29;56.99;98520.41;5017608;28;20056;-65
2021/06/28 06:27:15;;;;;;;8.10;6.07;;;;;;;23.33;56.96;98531.38;5020806;28;20111;-63
2021/06/28 06:29:41;;;;;;;7.93;5.82;;;;;;;23.32;56.17;98519.13;5023291;28;20030;-62
2021/06/28 06:32:06;;;;;;;7.30;5.38;;;;;;;23.49;55.59;98517.44;5019142;28;20017;-62
2021/06/28 06:34:32;;;;;;;7.88;5.75;;;;;;;23.53;54.84;98521.22;5020448;28;20498;-62
2021/06/28 06:36:57;;;;;;;7.15;4.30;;;;;;;23.48;55.22;98526.41;5019914;28;20037;-64
2021/06/28 06:39:23;;;;;;;7.90;6.57;;;;;;;23.46;55.77;98525.03;5015446;28;20030;-64
2021/06/28 06:41:48;;;;;;;7.53;5.70;;;;;;;23.26;55.92;98512.09;5017382;28;20029;-63
2021/06/28 06:44:13;;;;;;;7.40;4.57;;;;;;;23.43;56.73;98531.59;5019576;28;20029;-64
2021/06/28 06:46:39;;;;;;;6.97;5.43;;;;;;;23.36;57.38;98531.69;5016264;28;20485;-63
2021/06/28 06:49:05;;;;;;;7.32;5.30;;;;;;;23.31;57.25;98521.00;5017125;28;20056;-63
2021/06/28 06:51:31;;;;;;;8.70;5.25;;;;;;;23.38;57.75;98528.81;5019457;28;20121;-62
2021/06/28 06:53:57;;;;;;;8.40;6.45;;;;;;;23.43;58.79;98534.25;5025115;28;20059;-62
2021/06/28 06:56:22;;;;;;;6.88;4.90;;;;;;;23.38;59.25;98526.16;5017668;28;20112;-63
2021/06/28 06:58:48;;;;;;;12.10;6.72;;;;;;;23.31;58.53;98509.56;5027241;28;20074;-64
2021/06/28 07:01:16;;;;;;;7.57;6.10;;;;;;;23.33;58.54;98524.22;5015015;28;20552;-63
2021/06/28 07:03:45;;;;;;;10.32;6.40;;;;;;;23.37;58.40;98521.91;5021892;28;20435;-62
2021/06/28 07:06:11;;;;;;;7.80;6.40;;;;;;;23.39;58.04;98520.63;5028488;28;20036;-63
2021/06/28 07:08:37;;;;;;;8.75;5.97;;;;;;;23.47;58.71;98530.09;5013799;28;20041;-62
2021/06/28 07:11:06;;;;;;;7.25;5.32;;;;;;;23.42;58.96;98533.44;5028585;28;20374;-65
2021/06/28 07:13:33;;;;;;;9.00;6.80;;;;;;;23.47;58.78;98524.78;5018077;28;20053;-64
2021/06/28 07:15:58;;;;;;;7.07;5.60;;;;;;;23.36;59.07;98525.59;5013254;28;20075;-63
2021/06/28 07:18:24;;;;;;;7.57;5.43;;;;;;;23.48;58.74;98531.72;5031220;28;20041;-63
2021/06/28 07:20:50;;;;;;;8.40;4.70;;;;;;;23.44;59.02;98537.69;5005949;28;20052;-63
2021/06/28 07:23:16;;;;;;;9.95;5.70;;;;;;;23.40;58.76;98535.53;5013637;28;20037;-64
2021/06/28 07:25:41;;;;;;;8.35;5.53;;;;;;;23.51;58.50;98533.09;5020263;28;20037;-63
2021/06/28 07:28:07;;;;;;;7.50;5.07;;;;;;;23.52;58.53;98538.16;5016884;28;20036;-63
2021/06/28 07:30:33;;;;;;;9.45;5.53;;;;;;;23.57;58.81;98542.81;5018358;28;20030;-63
2021/06/28 07:32:58;;;;;;;8.05;6.13;;;;;;;23.57;58.36;98545.47;5031176;28;20040;-64
2021/06/28 07:35:24;;;;;;;7.07;5.30;;;;;;;23.68;58.23;98546.50;5016057;28;20587;-64
2021/06/28 07:37:50;;;;;;;8.00;5.50;;;;;;;23.72;58.27;98560.91;5015004;28;20516;-63
2021/06/28 07:40:18;;;;;;;9.02;5.30;;;;;;;23.81;58.03;98545.47;5012033;28;20044;-62
2021/06/28 07:42:44;;;;;;;7.57;5.20;;;;;;;23.96;56.42;98551.91;5033089;28;20034;-63
2021/06/28 07:45:10;;;;;;;6.65;5.18;;;;;;;24.31;56.10;98547.56;5017591;28;20038;-64
2021/06/28 07:47:36;;;;;;;11.95;5.57;;;;;;;24.50;55.51;98551.66;5000774;28;20576;-65
2021/06/28 07:50:04;;;;;;;8.55;5.43;;;;;;;24.15;55.74;98517.25;5019986;28;20028;-62
2021/06/28 07:52:30;;;;;;;8.32;6.03;;;;;;;24.59;54.77;98533.53;5023406;28;20095;-63
2021/06/28 07:54:55;;;;;;;7.80;5.78;;;;;;;24.64;54.59;98523.00;5017977;28;20033;-63
2021/06/28 07:57:21;;;;;;;7.90;5.95;;;;;;;25.20;54.06;98557.72;5020722;28;20095;-63
2021/06/28 07:59:47;;;;;;;7.68;5.32;;;;;;;25.53;52.52;98518.84;5019230;28;20034;-63
2021/06/28 08:02:12;;;;;;;7.18;5.82;;;;;;;25.77;52.21;98518.66;5018799;28;20022;-62
2021/06/28 08:04:38;;;;;;;8.25;6.07;;;;;;;25.65;51.93;98466.31;5017237;28;20394;-63
2021/06/28 08:07:03;;;;;;;6.90;5.00;;;;;;;26.28;51.45;98546.78;5011294;28;20033;-64
2021/06/28 08:09:29;;;;;;;6.47;5.57;;;;;;;26.80;50.40;98552.69;5028984;28;20034;-63
2021/06/28 08:11:57;;;;;;;6.00;4.65;;;;;;;26.76;50.69;98556.91;5020149;28;20459;-64
2021/06/28 08:14:23;;;;;;;10.25;5.32;;;;;;;26.99;50.40;98529.91;5018513;28;20443;-65
2021/06/28 08:16:49;;;;;;;8.70;4.65;;;;;;;27.04;49.46;98537.16;5015444;28;20034;-63
2021/06/28 08:19:14;;;;;;;6.50;5.00;;;;;;;26.73;49.68;98536.09;5013435;28;20037;-63
2021/06/28 08:21:40;;;;;;;7.68;4.55;;;;;;;27.01;49.50;98533.13;5016916;28;20034;-64
2021/06/28 08:24:07;;;;;;;7.85;3.78;;;;;;;27.09;48.38;98529.19;5035115;28;20029;-64
2021/06/28 08:26:33;;;;;;;6.55;3.95;;;;;;;27.23;47.91;98526.88;5020532;28;20539;-62
2021/06/28 08:29:02;;;;;;;6.97;4.20;;;;;;;27.63;47.32;98530.94;5005122;28;20033;-63
2021/06/28 08:31:28;;;;;;;6.32;4.65;;;;;;;27.52;46.77;98523.91;5015549;28;20025;-62
2021/06/28 08:33:54;;;;;;;6.18;4.63;;;;;;;27.67;46.20;98529.34;5002601;28;20025;-63
2021/06/28 08:36:19;;;;;;;5.88;4.40;;;;;;;27.86;45.97;98531.59;5019089;28;20029;-62
2021/06/28 08:38:44;;;;;;;6.47;4.75;;;;;;;27.76;44.93;98524.31;5015952;28;20029;-64
2021/06/28 08:41:15;;;;;;;7.82;5.30;;;;;;;27.62;46.12;98510.66;5026780;28;20033;-62
2021/06/28 08:43:45;;;;;;;7.10;4.70;;;;;;;27.71;46.32;98532.31;5015893;28;20049;-63
2021/06/28 08:46:12;;;;;;;5.88;4.00;;;;;;;27.12;47.71;98531.34;5017160;28;20038;-62
2021/06/28 08:48:45;;;;;;;7.78;4.93;;;;;;;27.06;47.79;98536.91;5015535;28;20114;-62
2021/06/28 08:51:12;;;;;;;6.15;4.45;;;;;;;27.81;47.09;98527.03;5018825;28;20025;-63
2021/06/28 08:53:38;;;;;;;8.05;4.75;;;;;;;27.58;46.87;98538.91;5014080;28;20025;-63
2021/06/28 08:56:07;;;;;;;5.70;4.82;;;;;;;27.57;46.19;98505.28;5027025;28;20080;-62
2021/06/28 08:58:39;;;;;;;;;;;;;;;28.34;46.23;98535.03;5001032;28;20102;-61
2021/06/28 09:01:06;;;;;;;7.57;5.25;;;;;;;27.78;46.14;98538.22;5000623;28;20008;-65
2021/06/28 09:03:35;;;;;;;7.05;5.30;;;;;;;27.44;47.75;98537.78;5018555;28;20567;-63
2021/06/28 09:06:14;;;;;;;7.40;4.22;;;;;;;27.96;45.94;98504.94;4995594;28;20041;-63
2021/06/28 09:08:59;;;;;;;7.93;3.85;;;;;;;28.28;45.74;98530.75;5016255;28;20662;-63
2021/06/28 09:11:26;;;;;;;6.30;5.13;;;;;;;28.18;44.92;98528.81;5015628;28;20059;-63
2021/06/28 09:13:54;;;;;;;9.50;4.00;;;;;;;28.23;45.64;98523.50;5017510;28;21362;-63
2021/06/28 09:16:25;;;;;;;9.35;4.90;;;;;;;28.82;43.01;98529.53;5025577;28;20040;-64
2021/06/28 09:19:02;;;;;;;6.78;4.25;;;;;;;29.36;41.96;98525.56;5016963;28;20026;-62
2021/06/28 09:21:40;;;;;;;6.40;4.03;;;;;;;29.68;40.42;98495.75;5030016;28;20436;-61
2021/06/28 09:24:22;;;;;;;6.05;3.58;;;;;;;29.97;37.64;98521.94;5017719;28;20040;-62
2021/06/28 09:26:47;;;;;;;5.28;3.78;;;;;;;29.76;38.72;98487.19;4995241;28;20350;-61
2021/06/28 09:29:13;;;;;;;7.93;3.85;;;;;;;30.16;37.69;98520.25;5020751;28;20029;-62
2021/06/28 09:31:44;;;;;;;7.78;3.60;;;;;;;30.57;37.84;98511.19;5015415;28;20076;-63
2021/06/28 09:34:12;;;;;;;7.03;4.00;;;;;;;30.82;37.47;98489.56;5031310;28;20038;-61
2021/06/28 09:36:48;;;;;;;7.27;3.97;;;;;;;30.56;35.76;98514.97;5013283;28;20527;-62
2021/06/28 09:39:27;;;;;;;6.20;3.30;;;;;;;30.64;36.62;98509.81;5028340;28;20076;-62
2021/06/28 09:42:15;;;;;;;6.70;4.25;;;;;;;30.88;36.08;98517.16;5010597;28;20105;-62
2021/06/28 09:45:00;;;;;;;8.75;3.65;;;;;;;30.53;38.67;98478.78;5015947;28;20118;-64
2021/06/28 09:47:30;;;;;;;10.18;3.80;;;;;;;30.81;39.47;98512.13;5015719;28;20024;-62
2021/06/28 09:50:10;;;;;;;5.95;3.60;;;;;;;30.20;38.22;98504.41;5017605;28;20106;-62
2021/06/28 09:52:40;;;;;;;7.88;4.22;;;;;;;30.09;38.98;98501.78;5017570;28;20032;-65
2021/06/28 09:55:14;;;;;;;6.97;4.43;;;;;;;29.66;43.80;98504.06;5011371;28;20029;-62
2021/06/28 09:58:08;;;;;;;6.38;4.88;;;;;;;29.83;39.92;98493.06;5013283;28;20484;-64
2021/06/28 10:00:35;;;;;;;5.80;3.60;;;;;;;30.13;38.98;98502.03;5015490;28;20549;-64
2021/06/28 10:03:03;;;;;;;5.78;3.70;;;;;;;30.65;37.34;98499.91;5019516;28;20061;-64
2021/06/28 10:05:36;;;;;;;7.40;3.97;;;;;;;30.54;34.35;98429.41;5027572;28;20406;-65
2021/06/28 10:08:02;;;;;;;7.70;3.45;;;;;;;30.88;33.81;98478.78;5031695;28;20018;-63
2021/06/28 10:10:29;;;;;;;7.15;3.22;;;;;;;30.90;32.05;98476.63;5027095;28;20238;-62
2021/06/28 10:13:00;;;;;;;5.28;2.95;;;;;;;30.50;34.10;98483.88;5008004;28;20033;-61
2021/06/28 10:15:28;;;;;;;5.95;2.85;;;;;;;30.34;33.99;98478.63;5001143;28;20029;-62
2021/06/28 10:17:54;;;;;;;5.15;2.90;;;;;;;30.29;34.33;98481.31;4999934;28;20348;-61
2021/06/28 10:20:22;;;;;;;7.63;2.60;;;;;;;30.13;34.56;98466.38;5039220;28;20854;-62
2021/06/28 10:22:49;;;;;;;5.45;3.15;;;;;;;30.07;35.01;98463.72;5037589;28;20028;-61
2021/06/28 10:25:17;;;;;;;5.55;2.55;;;;;;;30.07;34.48;98453.00;5024154;28;20079;-63
2021/06/28 10:27:43;;;;;;;5.45;3.00;;;;;;;30.09;33.93;98463.47;5016559;28;20034;-62
2021/06/28 10:30:11;;;;;;;8.85;2.90;;;;;;;30.02;34.37;98453.03;5023321;28;20672;-63
2021/06/28 10:32:38;;;;;;;4.68;2.40;;;;;;;30.00;34.49;98457.88;5016943;28;20112;-62
2021/06/28 10:35:06;;;;;;;6.90;3.25;;;;;;;30.00;35.05;98455.19;5021642;28;20075;-62
2021/06/28 10:37:38;;;;;;;6.63;2.83;;;;;;;29.82;35.37;98429.00;5022776;28;20041;-62
2021/06/28 10:40:15;;;;;;;9.25;3.22;;;;;;;29.83;34.75;98442.13;5015536;28;20567;-61
2021/06/28 10:42:46;;;;;;;8.85;2.85;;;;;;;30.00;35.19;98444.47;5019842;28;20026;-64
2021/06/28 10:45:13;;;;;;;5.97;3.80;;;;;;;29.64;34.29;98408.97;5019350;28;20071;-63
2021/06/28 10:47:41;;;;;;;7.35;2.88;;;;;;;29.72;35.67;98429.84;5015869;28;20120;-62
2021/06/28 10:50:08;;;;;;;5.60;2.50;;;;;;;29.89;34.91;98427.63;5035018;28;20029;-63
2021/06/28 10:52:34;;;;;;;7.65;3.65;;;;;;;29.85;34.85;98434.63;5012126;28;20368;-63
2021/06/28 10:55:23;;;;;;;7.07;3.03;;;;;;;29.93;34.95;98430.56;5020685;28;20119;-63
2021/06/28 10:57:53;;;;;;;6.35;3.10;;;;;;;30.05;34.08;98411.47;5018030;28;20056;-64
2021/06/28 11:00:18;;;;;;;;;;;;;;;30.11;33.86;98407.69;5018574;28;20033;-62
2021/06/28 11:02:43;;;;;;;5.47;3.47;;;;;;;30.17;34.49;98430.69;5018839;28;19920;-61
2021/06/28 11:05:10;;;;;;;6.28;3.35;;;;;;;29.99;34.80;98420.63;5020902;28;21089;-63
2021/06/28 11:07:48;;;;;;;8.68;3.65;;;;;;;30.02;34.58;98428.91;5033010;28;20040;-62
2021/06/28 11:10:37;;;;;;;9.53;3.53;;;;;;;29.82;35.46;98424.44;5031649;28;20026;-63
2021/06/28 11:13:27;;;;;;;6.28;3.13;;;;;;;29.77;35.50;98418.31;5017795;28;20013;-61
2021/06/28 11:15:53;;;;;;;10.45;3.80;;;;;;;29.66;35.70;98420.19;5023392;28;20021;-62
2021/06/28 11:18:31;;;;;;;11.18;3.90;;;;;;;29.65;35.89;98427.44;5038062;28;20044;-64
2021/06/28 11:20:56;;;;;;;13.13;5.03;;;;;;;29.49;36.40;98396.44;5016365;28;20427;-61
2021/06/28 11:23:22;;;;;;;7.13;3.65;;;;;;;29.49;35.80;98415.97;5021227;28;20029;-62
2021/06/28 11:25:57;;;;;;;6.30;3.47;;;;;;;29.55;36.39;98424.78;5015739;28;20125;-61
2021/06/28 11:28:27;;;;;;;8.10;3.72;;;;;;;29.31;36.34;98422.72;5035188;28;20083;-61
2021/06/28 11:31:05;;;;;;;8.60;3.55;;;;;;;29.28;36.56;98412.59;5032893;28;20033;-61
2021/06/28 11:33:53;;;;;;;6.93;3.47;;;;;;;29.38;36.73;98409.06;5017492;28;20036;-63
2021/06/28 11:36:22;;;;;;;7.68;3.60;;;;;;;29.34;36.15;98370.53;5001656;28;20084;-63